sensor_id;sensor_type;location;lat;lon;timestamp;pressure;altitude;pressure_sealevel;temperature;humidity
12471;BME280;36499;46.484;13.832;2023-05-02T00:01:43;93107.91;;;11.59;90.13
12471;BME280;36499;46.484;13.832;2023-05-02T00:04:10;93108.72;;;11.60;90.05
12471;BME280;36499;46.484;13.832;2023-05-02T00:06:37;93108.28;;;11.44;90.54
12471;BME280;36499;46.484;13.832;2023-05-02T00:09:07;93104.69;;;11.21;92.36
12471;BME280;36499;46.484;13.832;2023-05-02T00:11:35;93101.72;;;11.17;92.78
12471;BME280;36499;46.484;13.832;2023-05-02T00:14:02;93098.75;;;11.14;92.53
12471;BME280;36499;46.484;13.832;2023-05-02T00:16:29;93098.53;;;11.15;93.28
12471;BME280;36499;46.484;13.832;2023-05-02T00:18:56;93096.72;;;11.16;92.72
12471;BME280;36499;46.484;13.832;2023-05-02T00:21:23;93093.91;;;11.17;92.73
12471;BME280;36499;46.484;13.832;2023-05-02T00:23:53;93094.25;;;11.21;93.59
12471;BME280;36499;46.484;13.832;2023-05-02T00:26:21;93090.84;;;11.20;93.18
12471;BME280;36499;46.484;13.832;2023-05-02T00:28:50;93089.41;;;11.24;92.23
12471;BME280;36499;46.484;13.832;2023-05-02T00:31:17;93089.41;;;11.24;92.64
12471;BME280;36499;46.484;13.832;2023-05-02T00:33:44;93087.59;;;11.25;92.49
12471;BME280;36499;46.484;13.832;2023-05-02T00:36:14;93085.63;;;11.20;92.16
12471;BME280;36499;46.484;13.832;2023-05-02T00:38:42;93078.00;;;11.19;93.10
12471;BME280;36499;46.484;13.832;2023-05-02T00:41:09;93082.22;;;11.20;92.98
12471;BME280;36499;46.484;13.832;2023-05-02T00:43:37;93075.41;;;11.19;93.00
12471;BME280;36499;46.484;13.832;2023-05-02T00:46:07;93085.63;;;11.20;93.23
12471;BME280;36499;46.484;13.832;2023-05-02T00:48:34;93084.63;;;11.21;93.02
12471;BME280;36499;46.484;13.832;2023-05-02T00:51:03;93088.25;;;11.20;92.99
12471;BME280;36499;46.484;13.832;2023-05-02T00:53:31;93087.25;;;11.21;92.69
12471;BME280;36499;46.484;13.832;2023-05-02T00:55:58;93083.22;;;11.19;93.19
12471;BME280;36499;46.484;13.832;2023-05-02T00:58:26;93085.19;;;11.23;92.62
12471;BME280;36499;46.484;13.832;2023-05-02T01:01:10;93086.06;;;11.17;92.47
12471;BME280;36499;46.484;13.832;2023-05-02T01:03:56;93077.25;;;11.18;92.34
12471;BME280;36499;46.484;13.832;2023-05-02T01:06:41;93080.25;;;11.15;92.20
12471;BME280;36499;46.484;13.832;2023-05-02T01:09:33;93075.47;;;11.12;92.62
12471;BME280;36499;46.484;13.832;2023-05-02T01:12:10;93075.91;;;11.09;92.67
12471;BME280;36499;46.484;13.832;2023-05-02T01:14:46;93076.47;;;11.11;92.68
12471;BME280;36499;46.484;13.832;2023-05-02T01:17:19;93079.31;;;11.10;92.66
12471;BME280;36499;46.484;13.832;2023-05-02T01:19:53;93078.72;;;11.07;92.66
12471;BME280;36499;46.484;13.832;2023-05-02T01:22:25;93074.75;;;11.05;92.95
12471;BME280;36499;46.484;13.832;2023-05-02T01:25:02;93073.38;;;11.02;93.05
12471;BME280;36499;46.484;13.832;2023-05-02T01:27:41;93073.56;;;11.01;92.79
12471;BME280;36499;46.484;13.832;2023-05-02T01:30:13;93070.53;;;11.04;93.10
12471;BME280;36499;46.484;13.832;2023-05-02T01:32:44;93066.34;;;11.03;93.03
12471;BME280;36499;46.484;13.832;2023-05-02T01:35:15;93050.69;;;11.03;93.12
12471;BME280;36499;46.484;13.832;2023-05-02T01:37:45;93059.91;;;11.05;92.92
12471;BME280;36499;46.484;13.832;2023-05-02T01:40:18;93058.94;;;11.00;92.99
12471;BME280;36499;46.484;13.832;2023-05-02T01:42:49;93059.72;;;11.00;93.29
12471;BME280;36499;46.484;13.832;2023-05-02T01:45:20;93055.75;;;10.98;92.79
12471;BME280;36499;46.484;13.832;2023-05-02T01:47:48;93060.97;;;10.98;93.31
12471;BME280;36499;46.484;13.832;2023-05-02T01:50:23;93060.38;;;10.96;92.88
12471;BME280;36499;46.484;13.832;2023-05-02T01:52:53;93053.72;;;11.00;93.44
12471;BME280;36499;46.484;13.832;2023-05-02T01:55:23;93059.97;;;10.99;93.63
12471;BME280;36499;46.484;13.832;2023-05-02T01:57:53;93055.75;;;10.98;93.73
12471;BME280;36499;46.484;13.832;2023-05-02T02:00:25;93057.13;;;11.00;93.39
12471;BME280;36499;46.484;13.832;2023-05-02T02:02:54;93063.38;;;10.99;93.12
12471;BME280;36499;46.484;13.832;2023-05-02T02:05:24;93056.19;;;10.95;93.81
12471;BME280;36499;46.484;13.832;2023-05-02T02:07:52;93050.75;;;10.96;93.59
12471;BME280;36499;46.484;13.832;2023-05-02T02:10:21;93053.34;;;10.96;93.59
12471;BME280;36499;46.484;13.832;2023-05-02T02:12:53;93055.75;;;10.98;93.75
12471;BME280;36499;46.484;13.832;2023-05-02T02:15:27;93053.34;;;10.96;93.18
12471;BME280;36499;46.484;13.832;2023-05-02T02:18:00;93050.75;;;10.96;93.53
12471;BME280;36499;46.484;13.832;2023-05-02T02:20:29;93044.72;;;10.96;93.57
12471;BME280;36499;46.484;13.832;2023-05-02T02:22:59;93052.19;;;10.92;93.41
12471;BME280;36499;46.484;13.832;2023-05-02T02:25:29;93048.78;;;10.92;93.70
12471;BME280;36499;46.484;13.832;2023-05-02T02:27:57;93043.56;;;10.92;93.34
12471;BME280;36499;46.484;13.832;2023-05-02T02:30:26;93045.81;;;10.88;93.04
12471;BME280;36499;46.484;13.832;2023-05-02T02:32:53;93044.00;;;10.89;93.27
12471;BME280;36499;46.484;13.832;2023-05-02T02:35:21;93053.00;;;10.93;93.23
12471;BME280;36499;46.484;13.832;2023-05-02T02:37:58;93047.19;;;10.91;93.03
12471;BME280;36499;46.484;13.832;2023-05-02T02:40:32;93058.19;;;10.93;93.20
12471;BME280;36499;46.484;13.832;2023-05-02T02:43:11;93050.38;;;10.93;93.14
12471;BME280;36499;46.484;13.832;2023-05-02T02:45:54;93048.22;;;10.90;93.43
12471;BME280;36499;46.484;13.832;2023-05-02T02:48:31;93047.19;;;10.91;93.83
12471;BME280;36499;46.484;13.832;2023-05-02T02:51:08;93048.00;;;10.91;93.99
12471;BME280;36499;46.484;13.832;2023-05-02T02:53:52;93045.41;;;10.91;93.67
12471;BME280;36499;46.484;13.832;2023-05-02T02:56:31;93047.19;;;10.91;94.05
12471;BME280;36499;46.484;13.832;2023-05-02T02:59:11;93049.38;;;10.94;93.93
12471;BME280;36499;46.484;13.832;2023-05-02T03:01:45;93047.63;;;10.88;93.97
12471;BME280;36499;46.484;13.832;2023-05-02T03:04:16;93048.84;;;10.85;94.44
12471;BME280;36499;46.484;13.832;2023-05-02T03:06:44;93043.63;;;10.85;94.08
12471;BME280;36499;46.484;13.832;2023-05-02T03:09:15;93045.03;;;10.88;94.40
12471;BME280;36499;46.484;13.832;2023-05-02T03:11:43;93047.19;;;10.91;94.44
12471;BME280;36499;46.484;13.832;2023-05-02T03:14:11;93039.13;;;10.92;93.97
12471;BME280;36499;46.484;13.832;2023-05-02T03:16:40;93043.19;;;10.88;93.90
12471;BME280;36499;46.484;13.832;2023-05-02T03:19:07;93039.81;;;10.88;93.84
12471;BME280;36499;46.484;13.832;2023-05-02T03:21:34;93037.22;;;10.88;93.92
12471;BME280;36499;46.484;13.832;2023-05-02T03:24:03;93038.56;;;10.90;94.09
12471;BME280;36499;46.484;13.832;2023-05-02T03:26:30;93037.34;;;10.93;94.42
12471;BME280;36499;46.484;13.832;2023-05-02T03:28:58;93037.34;;;10.93;94.11
12471;BME280;36499;46.484;13.832;2023-05-02T03:31:25;93045.41;;;10.91;94.33
12471;BME280;36499;46.484;13.832;2023-05-02T03:33:53;93037.78;;;10.90;94.39
12471;BME280;36499;46.484;13.832;2023-05-02T03:36:20;93042.19;;;10.89;94.49
12471;BME280;36499;46.484;13.832;2023-05-02T03:38:47;93043.00;;;10.90;94.34
12471;BME280;36499;46.484;13.832;2023-05-02T03:41:14;93035.59;;;10.87;93.42
12471;BME280;36499;46.484;13.832;2023-05-02T03:43:41;93038.41;;;10.85;93.53
12471;BME280;36499;46.484;13.832;2023-05-02T03:46:09;93038.66;;;10.84;93.63
12471;BME280;36499;46.484;13.832;2023-05-02T03:48:37;93037.03;;;10.83;94.18
12471;BME280;36499;46.484;13.832;2023-05-02T03:51:06;93040.44;;;10.83;94.59
12471;BME280;36499;46.484;13.832;2023-05-02T03:53:35;93044.63;;;10.84;94.66
12471;BME280;36499;46.484;13.832;2023-05-02T03:56:02;93042.03;;;10.84;94.51
12471;BME280;36499;46.484;13.832;2023-05-02T03:58:29;93037.03;;;10.83;94.63
12471;BME280;36499;46.484;13.832;2023-05-02T04:00:56;93037.16;;;10.70;95.03
12471;BME280;36499;46.484;13.832;2023-05-02T04:03:23;93037.47;;;10.80;93.93
12471;BME280;36499;46.484;13.832;2023-05-02T04:05:50;93037.69;;;10.78;94.33
12471;BME280;36499;46.484;13.832;2023-05-02T04:08:19;93035.69;;;10.80;94.02
12471;BME280;36499;46.484;13.832;2023-05-02T04:10:46;93034.50;;;10.76;94.36
12471;BME280;36499;46.484;13.832;2023-05-02T04:13:13;93039.72;;;10.76;95.06
12471;BME280;36499;46.484;13.832;2023-05-02T04:15:40;93040.28;;;10.78;94.83
12471;BME280;36499;46.484;13.832;2023-05-02T04:18:07;93044.69;;;10.78;95.17
12471;BME280;36499;46.484;13.832;2023-05-02T04:20:34;93039.50;;;10.78;95.25
12471;BME280;36499;46.484;13.832;2023-05-02T04:23:01;93040.28;;;10.78;95.30
12471;BME280;36499;46.484;13.832;2023-05-02T04:25:29;93039.66;;;10.83;95.81
12471;BME280;36499;46.484;13.832;2023-05-02T04:27:56;93047.63;;;10.88;94.95
12471;BME280;36499;46.484;13.832;2023-05-02T04:30:23;93049.66;;;10.86;94.74
12471;BME280;36499;46.484;13.832;2023-05-02T04:32:50;93048.03;;;10.85;94.75
12471;BME280;36499;46.484;13.832;2023-05-02T04:35:18;93049.47;;;10.81;95.11
12471;BME280;36499;46.484;13.832;2023-05-02T04:37:46;93057.91;;;10.83;95.25
12471;BME280;36499;46.484;13.832;2023-05-02T04:40:13;93048.28;;;10.83;94.89
12471;BME280;36499;46.484;13.832;2023-05-02T04:42:42;93059.28;;;10.85;94.99
12471;BME280;36499;46.484;13.832;2023-05-02T04:45:09;93058.06;;;10.88;95.03
12471;BME280;36499;46.484;13.832;2023-05-02T04:47:36;93058.63;;;10.90;94.96
12471;BME280;36499;46.484;13.832;2023-05-02T04:50:06;93064.59;;;10.97;94.75
12471;BME280;36499;46.484;13.832;2023-05-02T04:52:34;93059.00;;;10.93;94.35
12471;BME280;36499;46.484;13.832;2023-05-02T04:55:01;93062.41;;;10.94;94.86
12471;BME280;36499;46.484;13.832;2023-05-02T04:57:28;93072.22;;;10.98;94.69
12471;BME280;36499;46.484;13.832;2023-05-02T04:59:57;93073.00;;;10.99;95.05
12471;BME280;36499;46.484;13.832;2023-05-02T05:02:24;93076.41;;;10.99;95.02
12471;BME280;36499;46.484;13.832;2023-05-02T05:04:51;93071.97;;;11.00;94.75
12471;BME280;36499;46.484;13.832;2023-05-02T05:07:18;93076.19;;;11.01;95.25
12471;BME280;36499;46.484;13.832;2023-05-02T05:09:45;93081.84;;;10.98;94.83
12471;BME280;36499;46.484;13.832;2023-05-02T05:12:13;93083.06;;;10.95;95.18
12471;BME280;36499;46.484;13.832;2023-05-02T05:14:40;93079.13;;;10.86;94.89
12471;BME280;36499;46.484;13.832;2023-05-02T05:17:08;93087.03;;;10.80;96.07
12471;BME280;36499;46.484;13.832;2023-05-02T05:19:35;93080.78;;;10.81;95.95
12471;BME280;36499;46.484;13.832;2023-05-02T05:22:02;93089.03;;;10.78;96.26
12471;BME280;36499;46.484;13.832;2023-05-02T05:24:29;93084.25;;;10.75;96.19
12471;BME280;36499;46.484;13.832;2023-05-02T05:26:56;93090.31;;;10.69;96.66
12471;BME280;36499;46.484;13.832;2023-05-02T05:29:23;93091.97;;;10.63;97.66
12471;BME280;36499;46.484;13.832;2023-05-02T05:31:50;93093.94;;;10.68;97.46
12471;BME280;36499;46.484;13.832;2023-05-02T05:34:19;93093.94;;;10.68;97.38
12471;BME280;36499;46.484;13.832;2023-05-02T05:36:46;93089.28;;;10.70;96.94
12471;BME280;36499;46.484;13.832;2023-05-02T05:39:13;93103.69;;;10.79;96.74
12471;BME280;36499;46.484;13.832;2023-05-02T05:41:40;93108.81;;;10.85;96.94
12471;BME280;36499;46.484;13.832;2023-05-02T05:44:07;93108.19;;;10.90;96.81
12471;BME280;36499;46.484;13.832;2023-05-02T05:46:34;93110.81;;;10.90;96.64
12471;BME280;36499;46.484;13.832;2023-05-02T05:49:02;93117.38;;;10.92;96.25
12471;BME280;36499;46.484;13.832;2023-05-02T05:51:30;93118.63;;;10.90;96.59
12471;BME280;36499;46.484;13.832;2023-05-02T05:53:57;93120.00;;;10.92;96.28
12471;BME280;36499;46.484;13.832;2023-05-02T05:56:24;93115.81;;;10.91;96.35
12471;BME280;36499;46.484;13.832;2023-05-02T05:58:51;93126.81;;;10.93;96.20
12471;BME280;36499;46.484;13.832;2023-05-02T06:01:19;93128.41;;;10.94;95.55
12471;BME280;36499;46.484;13.832;2023-05-02T06:03:47;93125.19;;;10.99;95.71
12471;BME280;36499;46.484;13.832;2023-05-02T06:06:14;93134.19;;;11.03;96.31
12471;BME280;36499;46.484;13.832;2023-05-02T06:08:42;93133.31;;;11.09;96.12
12471;BME280;36499;46.484;13.832;2023-05-02T06:11:09;93129.09;;;11.08;95.92
12471;BME280;36499;46.484;13.832;2023-05-02T06:13:37;93145.34;;;11.10;95.89
12471;BME280;36499;46.484;13.832;2023-05-02T06:16:05;93146.91;;;11.11;95.81
12471;BME280;36499;46.484;13.832;2023-05-02T06:18:32;93138.91;;;11.13;95.77
12471;BME280;36499;46.484;13.832;2023-05-02T06:21:03;93148.41;;;11.07;95.56
12471;BME280;36499;46.484;13.832;2023-05-02T06:23:30;93139.53;;;11.08;95.94
12471;BME280;36499;46.484;13.832;2023-05-02T06:26:00;93139.78;;;11.00;96.14
12471;BME280;36499;46.484;13.832;2023-05-02T06:28:27;93138.44;;;10.97;96.72
12471;BME280;36499;46.484;13.832;2023-05-02T06:30:59;93136.88;;;10.90;97.35
12471;BME280;36499;46.484;13.832;2023-05-02T06:33:26;93143.69;;;10.91;97.80
12471;BME280;36499;46.484;13.832;2023-05-02T06:35:53;93145.78;;;10.82;97.54
12471;BME280;36499;46.484;13.832;2023-05-02T06:38:21;93146.13;;;10.86;97.78
12471;BME280;36499;46.484;13.832;2023-05-02T06:40:49;93144.53;;;10.85;98.17
12471;BME280;36499;46.484;13.832;2023-05-02T06:43:18;93141.13;;;10.84;98.11
12471;BME280;36499;46.484;13.832;2023-05-02T06:45:45;93146.31;;;10.91;97.87
12471;BME280;36499;46.484;13.832;2023-05-02T06:48:12;93143.09;;;10.89;98.22
12471;BME280;36499;46.484;13.832;2023-05-02T06:50:40;93145.94;;;10.87;98.68
12471;BME280;36499;46.484;13.832;2023-05-02T06:53:07;93142.53;;;10.87;97.87
12471;BME280;36499;46.484;13.832;2023-05-02T06:55:34;93150.09;;;10.95;98.60
12471;BME280;36499;46.484;13.832;2023-05-02T06:58:01;93155.06;;;10.96;98.29
12471;BME280;36499;46.484;13.832;2023-05-02T07:00:29;93149.28;;;10.94;98.12
12471;BME280;36499;46.484;13.832;2023-05-02T07:02:57;93152.84;;;11.00;98.56
12471;BME280;36499;46.484;13.832;2023-05-02T07:05:24;93155.81;;;11.03;98.76
12471;BME280;36499;46.484;13.832;2023-05-02T07:07:51;93155.41;;;11.06;98.44
12471;BME280;36499;46.484;13.832;2023-05-02T07:10:18;93162.97;;;11.15;98.09
12471;BME280;36499;46.484;13.832;2023-05-02T07:12:45;93152.78;;;11.31;98.67
12471;BME280;36499;46.484;13.832;2023-05-02T07:15:12;93163.50;;;11.41;98.30
12471;BME280;36499;46.484;13.832;2023-05-02T07:17:42;93164.09;;;11.43;96.90
12471;BME280;36499;46.484;13.832;2023-05-02T07:20:12;93160.69;;;11.43;96.65
12471;BME280;36499;46.484;13.832;2023-05-02T07:22:40;93168.59;;;11.36;96.36
12471;BME280;36499;46.484;13.832;2023-05-02T07:25:08;93168.00;;;11.34;96.45
12471;BME280;36499;46.484;13.832;2023-05-02T07:27:35;93170.03;;;11.32;96.24
12471;BME280;36499;46.484;13.832;2023-05-02T07:30:03;93169.88;;;11.27;96.59
12471;BME280;36499;46.484;13.832;2023-05-02T07:32:30;93174.53;;;11.25;97.01
12471;BME280;36499;46.484;13.832;2023-05-02T07:34:59;93172.84;;;11.31;96.86
12471;BME280;36499;46.484;13.832;2023-05-02T07:37:31;93173.81;;;11.36;96.94
12471;BME280;36499;46.484;13.832;2023-05-02T07:39:58;93178.16;;;11.42;96.85
12471;BME280;36499;46.484;13.832;2023-05-02T07:42:28;93176.66;;;11.53;96.97
12471;BME280;36499;46.484;13.832;2023-05-02T07:44:55;93188.63;;;11.61;96.74
12471;BME280;36499;46.484;13.832;2023-05-02T07:47:22;93190.03;;;11.63;96.33
12471;BME280;36499;46.484;13.832;2023-05-02T07:49:51;93190.97;;;11.69;96.68
12471;BME280;36499;46.484;13.832;2023-05-02T07:52:20;93190.16;;;11.75;96.38
12471;BME280;36499;46.484;13.832;2023-05-02T07:54:48;93192.88;;;11.80;95.81
12471;BME280;36499;46.484;13.832;2023-05-02T07:57:15;93188.25;;;11.82;95.81
12471;BME280;36499;46.484;13.832;2023-05-02T07:59:42;93197.09;;;11.81;95.04
12471;BME280;36499;46.484;13.832;2023-05-02T08:02:09;93190.28;;;11.80;94.67
12471;BME280;36499;46.484;13.832;2023-05-02T08:04:38;93188.91;;;11.77;94.78
12471;BME280;36499;46.484;13.832;2023-05-02T08:07:05;93187.28;;;11.76;95.02
12471;BME280;36499;46.484;13.832;2023-05-02T08:09:34;93194.13;;;11.77;95.00
12471;BME280;36499;46.484;13.832;2023-05-02T08:12:01;93191.66;;;11.82;95.31
12471;BME280;36499;46.484;13.832;2023-05-02T08:14:28;93194.41;;;11.87;95.31
12471;BME280;36499;46.484;13.832;2023-05-02T08:16:56;93194.78;;;11.91;95.60
12471;BME280;36499;46.484;13.832;2023-05-02T08:19:23;93192.31;;;11.96;95.49
12471;BME280;36499;46.484;13.832;2023-05-02T08:21:52;93201.91;;;12.02;95.26
12471;BME280;36499;46.484;13.832;2023-05-02T08:24:19;93203.03;;;12.06;95.13
12471;BME280;36499;46.484;13.832;2023-05-02T08:26:48;93202.63;;;12.09;94.82
12471;BME280;36499;46.484;13.832;2023-05-02T08:29:15;93208.56;;;12.16;95.07
12471;BME280;36499;46.484;13.832;2023-05-02T08:31:42;93203.34;;;12.16;94.66
12471;BME280;36499;46.484;13.832;2023-05-02T08:34:10;93209.38;;;12.17;94.67
12471;BME280;36499;46.484;13.832;2023-05-02T08:36:37;93210.75;;;12.19;94.71
12471;BME280;36499;46.484;13.832;2023-05-02T08:39:04;93213.16;;;12.21;94.45
12471;BME280;36499;46.484;13.832;2023-05-02T08:41:32;93213.94;;;12.21;94.35
12471;BME280;36499;46.484;13.832;2023-05-02T08:44:02;93220.63;;;12.17;94.93
12471;BME280;36499;46.484;13.832;2023-05-02T08:46:31;93224.16;;;12.23;94.76
12471;BME280;36499;46.484;13.832;2023-05-02T08:49:02;93224.97;;;12.23;94.79
12471;BME280;36499;46.484;13.832;2023-05-02T08:51:29;93228.59;;;12.22;94.41
12471;BME280;36499;46.484;13.832;2023-05-02T08:53:58;93226.59;;;12.24;94.26
12471;BME280;36499;46.484;13.832;2023-05-02T08:56:27;93226.22;;;12.21;94.49
12471;BME280;36499;46.484;13.832;2023-05-02T08:58:55;93235.28;;;12.18;94.57
12471;BME280;36499;46.484;13.832;2023-05-02T09:01:27;93232.00;;;12.23;94.48
12471;BME280;36499;46.484;13.832;2023-05-02T09:03:56;93232.59;;;12.25;94.45
12471;BME280;36499;46.484;13.832;2023-05-02T09:06:26;93241.38;;;12.30;94.03
12471;BME280;36499;46.484;13.832;2023-05-02T09:08:54;93246.97;;;12.34;94.02
12471;BME280;36499;46.484;13.832;2023-05-02T09:11:25;93233.53;;;12.30;93.18
12471;BME280;36499;46.484;13.832;2023-05-02T09:13:52;93240.28;;;12.38;93.11
12471;BME280;36499;46.484;13.832;2023-05-02T09:16:24;93235.41;;;12.41;93.08
12471;BME280;36499;46.484;13.832;2023-05-02T09:18:53;93241.59;;;12.47;92.96
12471;BME280;36499;46.484;13.832;2023-05-02T09:21:22;93242.41;;;12.47;91.93
12471;BME280;36499;46.484;13.832;2023-05-02T09:23:51;93248.19;;;12.49;92.02
12471;BME280;36499;46.484;13.832;2023-05-02T09:26:21;93243.31;;;12.53;91.18
12471;BME280;36499;46.484;13.832;2023-05-02T09:28:50;93243.66;;;12.57;90.50
12471;BME280;36499;46.484;13.832;2023-05-02T09:31:19;93260.38;;;12.56;89.97
12471;BME280;36499;46.484;13.832;2023-05-02T09:33:48;93256.38;;;12.53;90.12
12471;BME280;36499;46.484;13.832;2023-05-02T09:36:18;93255.13;;;12.56;90.74
12471;BME280;36499;46.484;13.832;2023-05-02T09:38:49;93248.69;;;12.58;87.57
12471;BME280;36499;46.484;13.832;2023-05-02T09:41:17;93249.56;;;12.52;87.84
12471;BME280;36499;46.484;13.832;2023-05-02T09:43:55;93252.31;;;12.57;88.30
12471;BME280;36499;46.484;13.832;2023-05-02T09:46:22;93258.91;;;12.60;88.93
12471;BME280;36499;46.484;13.832;2023-05-02T09:48:55;93256.66;;;12.63;89.80
12471;BME280;36499;46.484;13.832;2023-05-02T09:51:24;93268.28;;;12.67;89.47
12471;BME280;36499;46.484;13.832;2023-05-02T09:53:51;93261.81;;;12.70;87.31
12471;BME280;36499;46.484;13.832;2023-05-02T09:56:19;93256.34;;;12.89;85.41
12471;BME280;36499;46.484;13.832;2023-05-02T09:58:46;93261.38;;;13.03;85.80
12471;BME280;36499;46.484;13.832;2023-05-02T10:01:14;93261.19;;;12.86;86.33
12471;BME280;36499;46.484;13.832;2023-05-02T10:03:46;93268.53;;;12.95;86.04
12471;BME280;36499;46.484;13.832;2023-05-02T10:06:15;93261.22;;;12.97;86.38
12471;BME280;36499;46.484;13.832;2023-05-02T10:08:43;93267.06;;;12.99;87.21
12471;BME280;36499;46.484;13.832;2023-05-02T10:11:12;93262.44;;;13.13;88.05
12471;BME280;36499;46.484;13.832;2023-05-02T10:13:42;93262.03;;;13.16;87.59
12471;BME280;36499;46.484;13.832;2023-05-02T10:16:11;93268.38;;;13.20;87.38
12471;BME280;36499;46.484;13.832;2023-05-02T10:18:45;93269.66;;;13.18;86.44
12471;BME280;36499;46.484;13.832;2023-05-02T10:21:16;93272.75;;;13.26;87.25
12471;BME280;36499;46.484;13.832;2023-05-02T10:23:47;93264.44;;;13.29;87.09
12471;BME280;36499;46.484;13.832;2023-05-02T10:26:16;93261.16;;;13.34;86.28
12471;BME280;36499;46.484;13.832;2023-05-02T10:28:43;93258.88;;;13.37;85.27
12471;BME280;36499;46.484;13.832;2023-05-02T10:31:13;93265.13;;;13.36;84.14
12471;BME280;36499;46.484;13.832;2023-05-02T10:33:41;93258.88;;;13.37;84.25
12471;BME280;36499;46.484;13.832;2023-05-02T10:36:10;93261.50;;;13.37;84.26
12471;BME280;36499;46.484;13.832;2023-05-02T10:38:41;93265.72;;;13.38;85.06
12471;BME280;36499;46.484;13.832;2023-05-02T10:41:13;93260.16;;;13.47;84.87
12471;BME280;36499;46.484;13.832;2023-05-02T10:43:46;93264.00;;;13.44;84.62
12471;BME280;36499;46.484;13.832;2023-05-02T10:46:30;93274.59;;;13.37;83.08
12471;BME280;36499;46.484;13.832;2023-05-02T10:49:03;93272.53;;;13.39;82.17
12471;BME280;36499;46.484;13.832;2023-05-02T10:51:31;93265.81;;;13.43;82.75
12471;BME280;36499;46.484;13.832;2023-05-02T10:54:27;93260.72;;;13.49;83.41
12471;BME280;36499;46.484;13.832;2023-05-02T10:57:07;93262.06;;;13.51;83.48
12471;BME280;36499;46.484;13.832;2023-05-02T10:59:37;93265.75;;;13.50;83.16
12471;BME280;36499;46.484;13.832;2023-05-02T11:02:05;93269.13;;;13.51;82.95
12471;BME280;36499;46.484;13.832;2023-05-02T11:05:03;93274.38;;;13.51;83.60
12471;BME280;36499;46.484;13.832;2023-05-02T11:07:32;93273.50;;;13.57;82.96
12471;BME280;36499;46.484;13.832;2023-05-02T11:10:26;93274.75;;;13.54;83.77
12471;BME280;36499;46.484;13.832;2023-05-02T11:12:55;93267.56;;;13.50;83.33
12471;BME280;36499;46.484;13.832;2023-05-02T11:15:53;93274.13;;;13.40;81.87
12471;BME280;36499;46.484;13.832;2023-05-02T11:18:21;93277.06;;;13.32;83.05
12471;BME280;36499;46.484;13.832;2023-05-02T11:20:48;93276.72;;;13.29;81.28
12471;BME280;36499;46.484;13.832;2023-05-02T11:23:21;93282.09;;;13.34;81.68
12471;BME280;36499;46.484;13.832;2023-05-02T11:25:54;93282.09;;;13.34;81.20
12471;BME280;36499;46.484;13.832;2023-05-02T11:28:42;93290.31;;;13.37;82.13
12471;BME280;36499;46.484;13.832;2023-05-02T11:32:01;93285.97;;;13.43;82.96
12471;BME280;36499;46.484;13.832;2023-05-02T11:34:39;93285.19;;;13.42;82.44
12471;BME280;36499;46.484;13.832;2023-05-02T11:37:11;93289.41;;;13.43;82.96
12471;BME280;36499;46.484;13.832;2023-05-02T11:39:40;93292.41;;;13.17;83.60
12471;BME280;36499;46.484;13.832;2023-05-02T11:42:09;93286.69;;;13.09;79.72
12471;BME280;36499;46.484;13.832;2023-05-02T11:44:54;93299.16;;;13.07;81.38
12471;BME280;36499;46.484;13.832;2023-05-02T11:47:22;93297.63;;;13.17;82.10
12471;BME280;36499;46.484;13.832;2023-05-02T11:49:49;93295.97;;;13.23;82.17
12471;BME280;36499;46.484;13.832;2023-05-02T11:52:16;93306.34;;;13.29;83.20
12471;BME280;36499;46.484;13.832;2023-05-02T11:54:43;93304.88;;;13.33;83.50
12471;BME280;36499;46.484;13.832;2023-05-02T11:57:12;93308.84;;;13.36;83.07
12471;BME280;36499;46.484;13.832;2023-05-02T11:59:50;93308.50;;;13.32;83.77
12471;BME280;36499;46.484;13.832;2023-05-02T12:02:17;93308.03;;;13.35;83.93
12471;BME280;36499;46.484;13.832;2023-05-02T12:04:45;93304.28;;;13.20;79.51
12471;BME280;36499;46.484;13.832;2023-05-02T12:07:12;93303.50;;;13.01;80.74
12471;BME280;36499;46.484;13.832;2023-05-02T12:09:53;93303.91;;;12.98;82.39
12471;BME280;36499;46.484;13.832;2023-05-02T12:12:22;93309.84;;;13.05;83.47
12471;BME280;36499;46.484;13.832;2023-05-02T12:14:50;93301.56;;;13.08;83.73
12471;BME280;36499;46.484;13.832;2023-05-02T12:17:17;93308.56;;;13.14;83.64
12471;BME280;36499;46.484;13.832;2023-05-02T12:19:44;93309.00;;;13.11;85.13
12471;BME280;36499;46.484;13.832;2023-05-02T12:22:14;93316.78;;;12.99;83.96
12471;BME280;36499;46.484;13.832;2023-05-02T12:24:41;93315.25;;;13.10;84.04
12471;BME280;36499;46.484;13.832;2023-05-02T12:27:10;93313.22;;;13.12;82.52
12471;BME280;36499;46.484;13.832;2023-05-02T12:29:40;93319.63;;;13.16;82.00
12471;BME280;36499;46.484;13.832;2023-05-02T12:32:08;93318.72;;;13.22;81.44
12471;BME280;36499;46.484;13.832;2023-05-02T12:34:36;93319.88;;;13.26;81.03
12471;BME280;36499;46.484;13.832;2023-05-02T12:37:04;93319.78;;;13.33;81.39
12471;BME280;36499;46.484;13.832;2023-05-02T12:39:35;93325.72;;;13.40;81.39
12471;BME280;36499;46.484;13.832;2023-05-02T12:42:10;93329.78;;;13.36;83.09
12471;BME280;36499;46.484;13.832;2023-05-02T12:44:40;93323.44;;;13.43;82.95
12471;BME280;36499;46.484;13.832;2023-05-02T12:47:12;93323.69;;;13.42;84.03
12471;BME280;36499;46.484;13.832;2023-05-02T12:49:49;93322.28;;;13.39;82.62
12471;BME280;36499;46.484;13.832;2023-05-02T12:52:16;93330.00;;;13.23;81.93
12471;BME280;36499;46.484;13.832;2023-05-02T12:54:44;93333.53;;;13.28;83.87
12471;BME280;36499;46.484;13.832;2023-05-02T12:57:22;93332.88;;;13.33;84.12
12471;BME280;36499;46.484;13.832;2023-05-02T12:59:52;93339.47;;;13.35;83.52
12471;BME280;36499;46.484;13.832;2023-05-02T13:02:20;93330.59;;;13.36;82.60
12471;BME280;36499;46.484;13.832;2023-05-02T13:04:47;93330.25;;;13.33;82.61